ADDS METAR Data INFO
IDs: Format: Raw Decoded Include TAF

Data at: 0309 UTC 17 Jan 2018

KD39 170255Z AUTO 00000KT 10SM M19/M21 A3048 RMK AO2 T11901211
KD39 170235Z AUTO 22003KT 10SM M19/M21 A3049 RMK AO2 T11911214
KD39 170215Z AUTO 00000KT 10SM M20/M22 A3049 RMK AO2 T11961219
KD39 170155Z AUTO 00000KT 10SM M19/M22 A3051 RMK AO2 T11911217
KD39 170135Z AUTO 22004KT 10SM M18/M21 A3051 RMK AO2 T11851210
KD39 170115Z AUTO 23004KT 10SM M18/M21 A3053 RMK AO2 T11811208
KD39 170055Z AUTO 25004KT 10SM M18/M20 A3053 RMK AO2 T11771205
KD39 170035Z AUTO 23003KT 10SM M17/M20 A3053 RMK AO2 T11741205
KD39 170015Z AUTO 23005KT 10SM M17/M20 A3054 RMK AO2 T11751205
KD39 162355Z AUTO 23005KT 10SM M18/M20 A3055 RMK AO2 T11761205 11140 21193
KD39 162335Z AUTO 24005KT 10SM M17/M20 A3055 RMK AO2 T11741205
KD39 162315Z AUTO 25005KT 10SM M17/M20 A3057 RMK AO2 T11661201
KD39 162255Z AUTO 25006KT 10SM M16/M20 A3058 RMK AO2 T11571197
KD39 162235Z AUTO 25006KT 10SM M15/M19 A3058 RMK AO2 T11501191
KD39 162215Z AUTO 27007KT 10SM M14/M19 A3058 RMK AO2 T11411190
KD39 162155Z AUTO 26005KT 10SM M14/M19 A3058 RMK AO2 T11401190
KD39 162135Z AUTO 27008KT 10SM M14/M19 A3059 RMK AO2 T11401189
KD39 162115Z AUTO 28006KT 10SM M14/M19 A3059 RMK AO2 T11411188
KD39 162055Z AUTO 27008KT 10SM M14/M19 A3059 RMK AO2 T11441189
KD39 162035Z AUTO 27006KT 10SM M14/M19 A3060 RMK AO2 T11451186
KD39 162015Z AUTO 28005KT 10SM M15/M19 A3060 RMK AO2 T11481190
KD39 161955Z AUTO 28005KT 10SM M15/M19 A3062 RMK AO2 T11511193
KD39 161935Z AUTO 30006KT 10SM M16/M20 A3062 RMK AO2 T11581197
KD39 161915Z AUTO 29007KT 10SM M16/M20 A3063 RMK AO2 T11651205
KD39 161855Z AUTO 30007KT 10SM M17/M21 A3063 RMK AO2 T11701208
KD39 161835Z AUTO 30005KT 10SM M18/M22 A3064 RMK AO2 T11801217
KD39 161815Z AUTO 28005KT 10SM M19/M22 A3065 RMK AO2 T11871224
KD39 161755Z AUTO 29005KT 10SM M19/M23 A3066 RMK AO2 T11941230 11194 21243
KD39 161735Z AUTO 29006KT 10SM M20/M23 A3066 RMK AO2 T11991235
KD39 161715Z AUTO 32005KT 10SM M20/M24 A3067 RMK AO2 T12041239
KD39 161655Z AUTO 32005KT 10SM M21/M24 A3068 RMK AO2 T12101245
KD39 161635Z AUTO 30007KT 10SM M22/M25 A3069 RMK AO2 T12161250
KD39 161615Z AUTO 30008KT 10SM M22/M25 A3069 RMK AO2 T12201251
KD39 161555Z AUTO 30008KT 10SM M22/M25 A3068 RMK AO2 T12231255
KD39 161535Z AUTO 30005KT 10SM M23/M26 A3068 RMK AO2 T12301260
KD39 161515Z AUTO 29005KT 10SM M23/M26 A3067 RMK AO2 T12331263
KD39 161455Z AUTO 30005KT 10SM M24/M27 A3067 RMK AO2 T12381266
KD39 161435Z AUTO 29005KT 10SM M24/M27 A3068 RMK AO2 T12421267
KD39 161415Z AUTO 31006KT 10SM M24/M26 A3068 RMK AO2 T12401265
KD39 161355Z AUTO 31007KT 10SM M24/M27 A3068 RMK AO2 T12411266
KD39 161335Z AUTO 31007KT 10SM M24/M26 A3067 RMK AO2 T12401265
KD39 161315Z AUTO 31007KT 10SM M24/M26 A3068 RMK AO2 T12371261
KD39 161255Z AUTO 30007KT 10SM M23/M26 A3068 RMK AO2 T12351260
KD39 161235Z AUTO 30007KT 10SM M23/M25 A3068 RMK AO2 T12311255
KD39 161215Z AUTO 31009KT 10SM M23/M25 A3068 RMK AO2 T12281252
KD39 161155Z AUTO 31009KT 10SM M22/M25 A3069 RMK AO2 T12251246 11202 21230
KD39 161135Z AUTO 30009KT 10SM M22/M24 A3068 RMK AO2 T12211244
KD39 161115Z AUTO 31008KT 10SM M22/M24 A3067 RMK AO2 T12211243
KD39 161055Z AUTO 31010KT 10SM M22/M25 A3067 RMK AO2 T12231247
KD39 161035Z AUTO 31009KT 10SM M22/M25 A3067 RMK AO2 T12251250
KD39 161015Z AUTO 29007KT 10SM M23/M25 A3068 RMK AO2 T12261250
KD39 160955Z AUTO 31009KT 10SM M22/M25 A3068 RMK AO2 T12251247
KD39 160935Z AUTO 32007KT 10SM M22/M25 A3068 RMK AO2 T12251250
KD39 160915Z AUTO 32007KT 10SM M23/M25 A3067 RMK AO2 T12271251
KD39 160855Z AUTO 32007KT 10SM M23/M25 A3067 RMK AO2 T12271251
KD39 160835Z AUTO 32008KT 10SM M23/M25 A3066 RMK AO2 T12301255
KD39 160815Z AUTO 32008KT 10SM M23/M25 A3065 RMK AO2 T12281253
KD39 160755Z AUTO 32007KT 10SM M23/M25 A3065 RMK AO2 T12301255
KD39 160735Z AUTO 32008KT 10SM M23/M25 A3065 RMK AO2 T12271253
KD39 160715Z AUTO 31008KT 10SM M23/M25 A3065 RMK AO2 T12271253
KD39 160655Z AUTO 31007KT 10SM M23/M25 A3064 RMK AO2 T12261250
KD39 160635Z AUTO 30004KT 10SM M22/M25 A3065 RMK AO2 T12241250
KD39 160615Z AUTO 33008KT 10SM M20/M22 A3064 RMK AO2 T12021225
KD39 160555Z AUTO 34008KT 10SM M20/M22 A3063 RMK AO2 T12021225 11201 21222 411721222
KD39 160535Z AUTO 34009KT 10SM M20/M22 A3064 RMK AO2 T12011225
KD39 160515Z AUTO 34007KT 10SM M20/M23 A3063 RMK AO2 T12041229
KD39 160455Z AUTO 34007KT 10SM M21/M23 A3063 RMK AO2 T12061231
KD39 160435Z AUTO 34006KT 10SM M21/M24 A3063 RMK AO2 T12101236
KD39 160415Z AUTO 34009KT 10SM M22/M25 A3063 RMK AO2 T12171247
KD39 160355Z AUTO 33009KT 10SM M22/M25 A3063 RMK AO2 T12211253
KD39 160335Z AUTO 33010KT 10SM M22/M26 A3062 RMK AO2 T12221256
KD39 160315Z AUTO 33009KT 10SM M22/M26 A3061 RMK AO2 T12201256
KD39 160255Z AUTO 33010KT 10SM M22/M26 A3061 RMK AO2 T12181256
KD39 160235Z AUTO 32010G17KT 10SM M22/M26 A3060 RMK AO2 T12201257
KD39 160215Z AUTO 32011KT 10SM M22/M26 A3060 RMK AO2 T12221260
KD39 160155Z AUTO 32010KT 10SM M22/M26 A3060 RMK AO2 T12211260
KD39 160135Z AUTO 32012KT 10SM M22/M26 A3059 RMK AO2 T12201260
KD39 160115Z AUTO 32010KT 10SM M22/M26 A3059 RMK AO2 T12211260
KD39 160055Z AUTO 32010KT 10SM M22/M26 A3058 RMK AO2 T12201260
KD39 160035Z AUTO 32012KT 10SM M22/M26 A3057 RMK AO2 T12191260
KD39 160015Z AUTO 32012G16KT 10SM M22/M26 A3057 RMK AO2 T12171260
KD39 152355Z AUTO 32011KT 10SM M22/M26 A3056 RMK AO2 T12161257 11182 21216
KD39 152335Z AUTO 31010KT 10SM M21/M26 A3055 RMK AO2 T12131256
KD39 152315Z AUTO 32011KT 10SM M21/M25 A3055 RMK AO2 T12121255
KD39 152255Z AUTO 32013KT 10SM M21/M25 A3053 RMK AO2 T12101251
KD39 152235Z AUTO 32013KT 10SM M20/M25 A3053 RMK AO2 T12021246
KD39 152215Z AUTO 32016KT 10SM M20/M24 A3052 RMK AO2 T12011245
KD39 152155Z AUTO 32015G19KT 10SM M20/M24 A3051 RMK AO2 T11991243
KD39 152135Z AUTO 31014KT 10SM M20/M24 A3050 RMK AO2 T11981241
KD39 152115Z AUTO 32015G21KT 10SM M19/M24 A3049 RMK AO2 T11911236
KD39 152055Z AUTO 32015KT 10SM M20/M24 A3048 RMK AO2 T11961237
KD39 152035Z AUTO 31014G21KT 7SM M19/M23 A3048 RMK AO2 T11911235
KD39 152015Z AUTO 32016G19KT 10SM M19/M23 A3047 RMK AO2 T11861230
KD39 151955Z AUTO 32015G19KT 10SM M18/M23 A3047 RMK AO2 T11841230
KD39 151935Z AUTO 32016KT 7SM M18/M23 A3046 RMK AO2 T11851231
KD39 151915Z AUTO 31017G22KT 7SM M19/M23 A3046 RMK AO2 T11891235
KD39 151855Z AUTO 32017G20KT 7SM M19/M24 A3046 RMK AO2 T11941237
KD39 151835Z AUTO 32018G23KT 7SM M19/M24 A3046 RMK AO2 T11921236
KD39 151815Z AUTO 32017G23KT 5SM HZ M20/M24 A3046 RMK AO2 T11981240
KD39 151755Z AUTO 32018G22KT 3SM HZ M20/M24 A3045 RMK AO2 T11991238 11197 21215
KD39 151735Z AUTO 32015G20KT 5SM HZ M20/M24 A3046 RMK AO2 T11981239
KD39 151715Z AUTO 33016G22KT 5SM HZ M20/M24 A3047 RMK AO2 T11981240
KD39 151655Z AUTO 33014G21KT 4SM HZ M20/M24 A3047 RMK AO2 T12001240
KD39 151635Z AUTO 33013G22KT 5SM HZ M20/M24 A3046 RMK AO2 T12011243
KD39 151615Z AUTO 34014KT 5SM HZ M20/M24 A3046 RMK AO2 T12031244
KD39 151555Z AUTO 33015G22KT 7SM M20/M25 A3045 RMK AO2 T12051246
KD39 151535Z AUTO 33016G19KT 7SM M21/M25 A3045 RMK AO2 T12101250
KD39 151515Z AUTO 33014G19KT 5SM HZ M21/M25 A3044 RMK AO2 T12121250